首页
METAR-TAF:

METAR-TAF

机场 :

鳳凰城天港國際機場

鳳凰城, 亞利桑那州, 美国

纬度: 33-26-03N, 经度: 112-03-04W, 海拔: 345米

当前天气观测

该预报发布于1小时和1分钟前的18:51 UTC
风速3节,风向南转西南
温度 17°C
湿度 45%
气压 1021 hPa
能見度: 16.1公里
少量云层高于7500英尺
多云层高于25000英尺

METAR: KPHX 171851Z 20003KT 10SM FEW075 BKN250 17/05 A3016 RMK AO2 SLP205 T01670050

时间: 12:52 (19:52 UTC)

预报

该预报发布于2小时和21分钟前的17:31 UTC
预报有效从17日的 18点(UTC)到 18日的 24点(UTC)
风速5节,风向西
能見度: 10公里
少量云层高于8000英尺
多云层高于25000英尺
从 18日的 0500点(UTC)
风速4节,风向东转东南
能見度: 10公里
少量云层高于25000英尺

TAF: KPHX 171731Z 1718/1824 27005KT P6SM FEW080 BKN250 FM180500 11004KT P6SM FEW250

超过4000个机场的气象观测和天气预报(METAR&TAF报告)。

可查询的气象台以黄色和红色小点在地图上表示。

将鼠标移到小点上方,可查看气象台名称。

然后点击查看天气观测和预报。

如需切换地图:点击带黑十字的绿色按钮放大地图;点击带横线的绿色按钮缩小地图;或者点击绿色箭头查看邻近地区的地图。


METAR-TAF: